sensor_id;sensor_type;location;lat;lon;timestamp;pressure;altitude;pressure_sealevel;temperature;humidity
48216;BME280;34005;48.844;10.098;2022-09-25T00:01:22;96277.63;;;14.31;78.20
48216;BME280;34005;48.844;10.098;2022-09-25T00:03:50;96276.03;;;14.30;78.08
48216;BME280;34005;48.844;10.098;2022-09-25T00:06:20;96277.81;;;14.30;78.09
48216;BME280;34005;48.844;10.098;2022-09-25T00:08:48;96272.81;;;14.28;77.81
48216;BME280;34005;48.844;10.098;2022-09-25T00:11:19;96273.22;;;14.25;77.81
48216;BME280;34005;48.844;10.098;2022-09-25T00:13:47;96268.41;;;14.22;77.92
48216;BME280;34005;48.844;10.098;2022-09-25T00:16:18;96271.44;;;14.19;78.24
48216;BME280;34005;48.844;10.098;2022-09-25T00:18:47;96256.72;;;14.18;78.22
48216;BME280;34005;48.844;10.098;2022-09-25T00:21:34;96263.41;;;14.14;77.69
48216;BME280;34005;48.844;10.098;2022-09-25T00:24:06;96261.22;;;14.11;77.99
48216;BME280;34005;48.844;10.098;2022-09-25T00:26:36;96267.91;;;14.07;78.13
48216;BME280;34005;48.844;10.098;2022-09-25T00:29:06;96273.16;;;14.07;78.48
48216;BME280;34005;48.844;10.098;2022-09-25T00:31:36;96270.31;;;14.08;78.68
48216;BME280;34005;48.844;10.098;2022-09-25T00:34:05;96271.72;;;14.11;79.01
48216;BME280;34005;48.844;10.098;2022-09-25T00:36:33;96274.94;;;14.13;78.72
48216;BME280;34005;48.844;10.098;2022-09-25T00:39:02;96278.56;;;14.12;78.59
48216;BME280;34005;48.844;10.098;2022-09-25T00:41:30;96278.16;;;14.15;78.73
48216;BME280;34005;48.844;10.098;2022-09-25T00:44:00;96282.97;;;14.18;78.94
48216;BME280;34005;48.844;10.098;2022-09-25T00:46:30;96283.13;;;14.23;79.02
48216;BME280;34005;48.844;10.098;2022-09-25T00:49:01;96276.88;;;14.24;78.85
48216;BME280;34005;48.844;10.098;2022-09-25T00:51:35;96279.28;;;14.26;79.08
48216;BME280;34005;48.844;10.098;2022-09-25T00:54:12;96273.81;;;14.27;78.92
48216;BME280;34005;48.844;10.098;2022-09-25T00:56:44;96276.44;;;14.27;78.64
48216;BME280;34005;48.844;10.098;2022-09-25T00:59:14;96271.19;;;14.27;78.92
48216;BME280;34005;48.844;10.098;2022-09-25T01:01:43;96263.91;;;14.29;78.78
48216;BME280;34005;48.844;10.098;2022-09-25T01:04:12;96267.91;;;14.32;78.33
48216;BME280;34005;48.844;10.098;2022-09-25T01:06:42;96273.16;;;14.32;78.05
48216;BME280;34005;48.844;10.098;2022-09-25T01:09:10;96257.06;;;14.28;77.29
48216;BME280;34005;48.844;10.098;2022-09-25T01:11:38;96252.22;;;14.25;77.31
48216;BME280;34005;48.844;10.098;2022-09-25T01:14:08;96255.44;;;14.27;77.55
48216;BME280;34005;48.844;10.098;2022-09-25T01:16:39;96256.25;;;14.28;77.17
48216;BME280;34005;48.844;10.098;2022-09-25T01:19:18;96247.56;;;14.27;77.23
48216;BME280;34005;48.844;10.098;2022-09-25T01:21:53;96240.13;;;14.24;77.18
48216;BME280;34005;48.844;10.098;2022-09-25T01:24:41;96241.78;;;14.18;76.73
48216;BME280;34005;48.844;10.098;2022-09-25T01:27:30;96247.50;;;14.09;76.66
48216;BME280;34005;48.844;10.098;2022-09-25T01:30:06;96235.84;;;14.05;77.21
48216;BME280;34005;48.844;10.098;2022-09-25T01:32:41;96234.25;;;13.97;76.97
48216;BME280;34005;48.844;10.098;2022-09-25T01:35:15;96228.47;;;13.88;77.08
48216;BME280;34005;48.844;10.098;2022-09-25T01:37:51;96238.78;;;13.83;77.66
48216;BME280;34005;48.844;10.098;2022-09-25T01:40:23;96234.38;;;13.77;78.08
48216;BME280;34005;48.844;10.098;2022-09-25T01:42:53;96233.38;;;13.78;78.26
48216;BME280;34005;48.844;10.098;2022-09-25T01:45:28;96244.88;;;13.77;78.41
48216;BME280;34005;48.844;10.098;2022-09-25T01:47:58;96237.00;;;13.77;78.27
48216;BME280;34005;48.844;10.098;2022-09-25T01:50:32;96243.28;;;13.76;78.09
48216;BME280;34005;48.844;10.098;2022-09-25T01:53:06;96240.66;;;13.76;78.54
48216;BME280;34005;48.844;10.098;2022-09-25T01:55:39;96239.63;;;13.77;78.51
48216;BME280;34005;48.844;10.098;2022-09-25T01:58:14;96240.22;;;13.79;78.75
48216;BME280;34005;48.844;10.098;2022-09-25T02:00:49;96239.22;;;13.80;78.96
48216;BME280;34005;48.844;10.098;2022-09-25T02:03:22;96238.78;;;13.83;78.48
48216;BME280;34005;48.844;10.098;2022-09-25T02:05:54;96234.34;;;13.84;78.18
48216;BME280;34005;48.844;10.098;2022-09-25T02:08:27;96248.66;;;13.88;77.60
48216;BME280;34005;48.844;10.098;2022-09-25T02:10:59;96247.84;;;13.87;77.22
48216;BME280;34005;48.844;10.098;2022-09-25T02:13:32;96245.81;;;13.89;77.39
48216;BME280;34005;48.844;10.098;2022-09-25T02:16:08;96252.06;;;13.88;76.72
48216;BME280;34005;48.844;10.098;2022-09-25T02:18:37;96255.56;;;13.82;76.48
48216;BME280;34005;48.844;10.098;2022-09-25T02:21:27;96251.75;;;13.78;76.53
48216;BME280;34005;48.844;10.098;2022-09-25T02:24:04;96250.13;;;13.77;77.22
48216;BME280;34005;48.844;10.098;2022-09-25T02:26:33;96245.31;;;13.74;76.46
48216;BME280;34005;48.844;10.098;2022-09-25T02:29:03;96247.16;;;13.67;76.69
48216;BME280;34005;48.844;10.098;2022-09-25T02:31:35;96243.34;;;13.63;76.96
48216;BME280;34005;48.844;10.098;2022-09-25T02:34:06;96245.78;;;13.57;77.03
48216;BME280;34005;48.844;10.098;2022-09-25T02:36:40;96238.94;;;13.56;77.19
48216;BME280;34005;48.844;10.098;2022-09-25T02:39:12;96244.38;;;13.55;77.08
48216;BME280;34005;48.844;10.098;2022-09-25T02:41:56;96247.44;;;13.52;77.46
48216;BME280;34005;48.844;10.098;2022-09-25T02:44:33;96250.84;;;13.52;77.36
48216;BME280;34005;48.844;10.098;2022-09-25T02:47:18;96241.56;;;13.56;78.01
48216;BME280;34005;48.844;10.098;2022-09-25T02:49:54;96240.75;;;13.56;77.25
48216;BME280;34005;48.844;10.098;2022-09-25T02:52:30;96238.53;;;13.53;77.09
48216;BME280;34005;48.844;10.098;2022-09-25T02:55:04;96239.78;;;13.50;77.25
48216;BME280;34005;48.844;10.098;2022-09-25T02:57:38;96239.16;;;13.48;77.39
48216;BME280;34005;48.844;10.098;2022-09-25T03:00:11;96240.19;;;13.47;77.57
48216;BME280;34005;48.844;10.098;2022-09-25T03:02:41;96240.19;;;13.47;77.74
48216;BME280;34005;48.844;10.098;2022-09-25T03:05:18;96239.38;;;13.47;77.52
48216;BME280;34005;48.844;10.098;2022-09-25T03:07:47;96236.19;;;13.45;77.85
48216;BME280;34005;48.844;10.098;2022-09-25T03:10:34;96230.72;;;13.46;78.06
48216;BME280;34005;48.844;10.098;2022-09-25T03:13:14;96232.06;;;13.55;79.47
48216;BME280;34005;48.844;10.098;2022-09-25T03:15:44;96228.03;;;13.59;78.71
48216;BME280;34005;48.844;10.098;2022-09-25T03:18:14;96226.41;;;13.65;78.70
48216;BME280;34005;48.844;10.098;2022-09-25T03:20:42;96234.44;;;13.70;78.80
48216;BME280;34005;48.844;10.098;2022-09-25T03:23:10;96231.81;;;13.70;78.01
48216;BME280;34005;48.844;10.098;2022-09-25T03:25:39;96239.47;;;13.72;78.07
48216;BME280;34005;48.844;10.098;2022-09-25T03:28:15;96240.84;;;13.74;78.13
48216;BME280;34005;48.844;10.098;2022-09-25T03:30:42;96239.25;;;13.73;78.01
48216;BME280;34005;48.844;10.098;2022-09-25T03:33:11;96235.22;;;13.71;77.88
48216;BME280;34005;48.844;10.098;2022-09-25T03:35:41;96231.81;;;13.70;78.35
48216;BME280;34005;48.844;10.098;2022-09-25T03:38:09;96221.56;;;13.69;78.14
48216;BME280;34005;48.844;10.098;2022-09-25T03:40:38;96231.44;;;13.67;77.91
48216;BME280;34005;48.844;10.098;2022-09-25T03:43:06;96233.63;;;13.70;78.65
48216;BME280;34005;48.844;10.098;2022-09-25T03:45:33;96222.72;;;13.73;78.61
48216;BME280;34005;48.844;10.098;2022-09-25T03:48:01;96222.50;;;13.74;78.89
48216;BME280;34005;48.844;10.098;2022-09-25T03:50:28;96218.88;;;13.75;78.99
48216;BME280;34005;48.844;10.098;2022-09-25T03:52:58;96224.72;;;13.77;78.87
48216;BME280;34005;48.844;10.098;2022-09-25T03:55:25;96219.88;;;13.74;78.19
48216;BME280;34005;48.844;10.098;2022-09-25T03:57:53;96219.50;;;13.71;77.72
48216;BME280;34005;48.844;10.098;2022-09-25T04:00:21;96220.72;;;13.68;78.06
48216;BME280;34005;48.844;10.098;2022-09-25T04:02:49;96221.56;;;13.69;78.70
48216;BME280;34005;48.844;10.098;2022-09-25T04:05:17;96214.25;;;13.71;78.97
48216;BME280;34005;48.844;10.098;2022-09-25T04:07:45;96217.06;;;13.76;79.37
48216;BME280;34005;48.844;10.098;2022-09-25T04:10:15;96215.63;;;13.80;79.19
48216;BME280;34005;48.844;10.098;2022-09-25T04:12:43;96213.81;;;13.80;78.46
48216;BME280;34005;48.844;10.098;2022-09-25T04:15:11;96212.19;;;13.79;77.90
48216;BME280;34005;48.844;10.098;2022-09-25T04:17:38;96215.84;;;13.78;77.20
48216;BME280;34005;48.844;10.098;2022-09-25T04:20:07;96210.19;;;13.75;77.53
48216;BME280;34005;48.844;10.098;2022-09-25T04:22:35;96214.44;;;13.76;77.91
48216;BME280;34005;48.844;10.098;2022-09-25T04:25:03;96212.63;;;13.76;77.48
48216;BME280;34005;48.844;10.098;2022-09-25T04:27:32;96217.06;;;13.76;77.13
48216;BME280;34005;48.844;10.098;2022-09-25T04:30:00;96217.66;;;13.78;77.41
48216;BME280;34005;48.844;10.098;2022-09-25T04:32:28;96227.91;;;13.79;77.48
48216;BME280;34005;48.844;10.098;2022-09-25T04:35:13;96229.53;;;13.80;77.38
48216;BME280;34005;48.844;10.098;2022-09-25T04:37:41;96231.97;;;13.82;77.14
48216;BME280;34005;48.844;10.098;2022-09-25T04:40:09;96231.72;;;13.84;77.59
48216;BME280;34005;48.844;10.098;2022-09-25T04:42:39;96236.16;;;13.83;77.08
48216;BME280;34005;48.844;10.098;2022-09-25T04:45:08;96232.75;;;13.83;76.41
48216;BME280;34005;48.844;10.098;2022-09-25T04:47:36;96233.75;;;13.81;76.97
48216;BME280;34005;48.844;10.098;2022-09-25T04:50:04;96237.59;;;13.79;76.55
48216;BME280;34005;48.844;10.098;2022-09-25T04:52:32;96235.22;;;13.77;77.09
48216;BME280;34005;48.844;10.098;2022-09-25T04:55:00;96223.69;;;13.78;76.80
48216;BME280;34005;48.844;10.098;2022-09-25T04:57:29;96219.47;;;13.77;76.22
48216;BME280;34005;48.844;10.098;2022-09-25T05:00:19;96219.28;;;13.72;75.99
48216;BME280;34005;48.844;10.098;2022-09-25T05:02:47;96218.75;;;13.64;75.83
48216;BME280;34005;48.844;10.098;2022-09-25T05:05:15;96218.97;;;13.55;76.07
48216;BME280;34005;48.844;10.098;2022-09-25T05:07:51;96215.22;;;13.45;76.60
48216;BME280;34005;48.844;10.098;2022-09-25T05:10:20;96220.91;;;13.35;76.43
48216;BME280;34005;48.844;10.098;2022-09-25T05:12:53;96225.97;;;13.30;77.24
48216;BME280;34005;48.844;10.098;2022-09-25T05:15:23;96220.09;;;13.28;77.21
48216;BME280;34005;48.844;10.098;2022-09-25T05:17:58;96228.34;;;13.25;77.49
48216;BME280;34005;48.844;10.098;2022-09-25T05:20:27;96217.69;;;13.19;77.40
48216;BME280;34005;48.844;10.098;2022-09-25T05:22:55;96227.97;;;13.21;78.00
48216;BME280;34005;48.844;10.098;2022-09-25T05:25:25;96228.34;;;13.25;78.41
48216;BME280;34005;48.844;10.098;2022-09-25T05:27:53;96232.00;;;13.30;77.92
48216;BME280;34005;48.844;10.098;2022-09-25T05:30:27;96224.53;;;13.34;77.76
48216;BME280;34005;48.844;10.098;2022-09-25T05:32:55;96220.91;;;13.35;77.39
48216;BME280;34005;48.844;10.098;2022-09-25T05:35:26;96233.56;;;13.38;77.74
48216;BME280;34005;48.844;10.098;2022-09-25T05:37:55;96226.91;;;13.42;77.54
48216;BME280;34005;48.844;10.098;2022-09-25T05:40:23;96235.34;;;13.44;77.54
48216;BME280;34005;48.844;10.098;2022-09-25T05:42:52;96235.31;;;13.51;77.93
48216;BME280;34005;48.844;10.098;2022-09-25T05:45:21;96230.06;;;13.57;77.95
48216;BME280;34005;48.844;10.098;2022-09-25T05:48:00;96231.88;;;13.57;77.49
48216;BME280;34005;48.844;10.098;2022-09-25T05:50:28;96226.44;;;13.58;77.64
48216;BME280;34005;48.844;10.098;2022-09-25T05:52:58;96220.75;;;13.62;77.85
48216;BME280;34005;48.844;10.098;2022-09-25T05:55:35;96220.13;;;13.66;78.41
48216;BME280;34005;48.844;10.098;2022-09-25T05:58:12;96229.97;;;13.71;78.42
48216;BME280;34005;48.844;10.098;2022-09-25T06:00:52;96220.09;;;13.73;78.08
48216;BME280;34005;48.844;10.098;2022-09-25T06:03:26;96217.06;;;13.76;77.94
48216;BME280;34005;48.844;10.098;2022-09-25T06:05:55;96222.66;;;13.79;77.67
48216;BME280;34005;48.844;10.098;2022-09-25T06:08:24;96219.25;;;13.79;77.05
48216;BME280;34005;48.844;10.098;2022-09-25T06:10:57;96218.25;;;13.80;77.03
48216;BME280;34005;48.844;10.098;2022-09-25T06:13:40;96216.22;;;13.82;77.01
48216;BME280;34005;48.844;10.098;2022-09-25T06:16:14;96212.97;;;13.87;77.00
48216;BME280;34005;48.844;10.098;2022-09-25T06:18:46;96213.31;;;13.90;76.67
48216;BME280;34005;48.844;10.098;2022-09-25T06:21:14;96212.31;;;13.91;76.67
48216;BME280;34005;48.844;10.098;2022-09-25T06:23:42;96217.38;;;13.93;76.67
48216;BME280;34005;48.844;10.098;2022-09-25T06:26:13;96226.03;;;13.93;76.40
48216;BME280;34005;48.844;10.098;2022-09-25T06:28:44;96218.16;;;13.93;76.66
48216;BME280;34005;48.844;10.098;2022-09-25T06:31:44;96221.38;;;13.95;76.74
48216;BME280;34005;48.844;10.098;2022-09-25T06:34:15;96226.19;;;13.98;76.62
48216;BME280;34005;48.844;10.098;2022-09-25T06:36:43;96226.78;;;14.00;75.87
48216;BME280;34005;48.844;10.098;2022-09-25T06:39:11;96231.44;;;13.98;75.55
48216;BME280;34005;48.844;10.098;2022-09-25T06:41:39;96231.44;;;13.98;75.78
48216;BME280;34005;48.844;10.098;2022-09-25T06:44:07;96232.88;;;13.94;75.54
48216;BME280;34005;48.844;10.098;2022-09-25T06:46:37;96225.22;;;13.93;75.12
48216;BME280;34005;48.844;10.098;2022-09-25T06:49:05;96227.47;;;13.89;75.28
48216;BME280;34005;48.844;10.098;2022-09-25T06:51:34;96225.84;;;13.88;75.16
48216;BME280;34005;48.844;10.098;2022-09-25T06:54:04;96229.06;;;13.90;75.48
48216;BME280;34005;48.844;10.098;2022-09-25T06:56:36;96236.28;;;13.95;76.15
48216;BME280;34005;48.844;10.098;2022-09-25T06:59:04;96233.84;;;14.00;76.07
48216;BME280;34005;48.844;10.098;2022-09-25T07:01:34;96225.34;;;14.05;75.99
48216;BME280;34005;48.844;10.098;2022-09-25T07:04:02;96226.53;;;14.09;75.44
48216;BME280;34005;48.844;10.098;2022-09-25T07:06:30;96236.19;;;14.15;75.53
48216;BME280;34005;48.844;10.098;2022-09-25T07:09:02;96237.94;;;14.21;75.80
48216;BME280;34005;48.844;10.098;2022-09-25T07:11:30;96236.13;;;14.21;74.59
48216;BME280;34005;48.844;10.098;2022-09-25T07:13:57;96239.53;;;14.22;74.44
48216;BME280;34005;48.844;10.098;2022-09-25T07:16:26;96238.31;;;14.25;74.49
48216;BME280;34005;48.844;10.098;2022-09-25T07:18:55;96241.09;;;14.30;74.93
48216;BME280;34005;48.844;10.098;2022-09-25T07:21:25;96242.06;;;14.35;74.62
48216;BME280;34005;48.844;10.098;2022-09-25T07:23:56;96250.09;;;14.40;74.98
48216;BME280;34005;48.844;10.098;2022-09-25T07:26:28;96246.03;;;14.45;74.48
48216;BME280;34005;48.844;10.098;2022-09-25T07:29:08;96243.78;;;14.48;74.57
48216;BME280;34005;48.844;10.098;2022-09-25T07:31:38;96248.38;;;14.53;74.56
48216;BME280;34005;48.844;10.098;2022-09-25T07:34:06;96248.81;;;14.56;74.22
48216;BME280;34005;48.844;10.098;2022-09-25T07:36:36;96245.94;;;14.58;74.38
48216;BME280;34005;48.844;10.098;2022-09-25T07:39:05;96262.50;;;14.58;73.97
48216;BME280;34005;48.844;10.098;2022-09-25T07:41:35;96255.44;;;14.59;74.03
48216;BME280;34005;48.844;10.098;2022-09-25T07:44:04;96249.94;;;14.60;74.19
48216;BME280;34005;48.844;10.098;2022-09-25T07:46:53;96261.63;;;14.65;73.72
48216;BME280;34005;48.844;10.098;2022-09-25T07:49:21;96263.59;;;14.69;74.02
48216;BME280;34005;48.844;10.098;2022-09-25T07:51:49;96257.94;;;14.72;73.82
48216;BME280;34005;48.844;10.098;2022-09-25T07:54:18;96252.25;;;14.75;73.99
48216;BME280;34005;48.844;10.098;2022-09-25T07:56:48;96255.47;;;14.77;73.82
48216;BME280;34005;48.844;10.098;2022-09-25T07:59:16;96257.09;;;14.78;73.55
48216;BME280;34005;48.844;10.098;2022-09-25T08:01:44;96258.69;;;14.79;72.95
48216;BME280;34005;48.844;10.098;2022-09-25T08:04:19;96262.34;;;14.78;73.01
48216;BME280;34005;48.844;10.098;2022-09-25T08:06:47;96254.66;;;14.77;72.80
48216;BME280;34005;48.844;10.098;2022-09-25T08:09:15;96256.50;;;14.76;73.04
48216;BME280;34005;48.844;10.098;2022-09-25T08:11:42;96251.25;;;14.76;73.07
48216;BME280;34005;48.844;10.098;2022-09-25T08:14:11;96254.47;;;14.78;73.39
48216;BME280;34005;48.844;10.098;2022-09-25T08:16:41;96254.81;;;14.82;73.07
48216;BME280;34005;48.844;10.098;2022-09-25T08:19:09;96257.38;;;14.89;73.45
48216;BME280;34005;48.844;10.098;2022-09-25T08:21:36;96253.09;;;14.94;73.16
48216;BME280;34005;48.844;10.098;2022-09-25T08:24:04;96256.22;;;15.03;73.12
48216;BME280;34005;48.844;10.098;2022-09-25T08:26:31;96247.03;;;15.12;72.63
48216;BME280;34005;48.844;10.098;2022-09-25T08:28:59;96254.63;;;15.20;72.24
48216;BME280;34005;48.844;10.098;2022-09-25T08:31:28;96260.00;;;15.25;71.92
48216;BME280;34005;48.844;10.098;2022-09-25T08:33:56;96257.09;;;15.34;71.75
48216;BME280;34005;48.844;10.098;2022-09-25T08:36:43;96242.91;;;15.53;71.38
48216;BME280;34005;48.844;10.098;2022-09-25T08:39:11;96243.72;;;15.72;71.06
48216;BME280;34005;48.844;10.098;2022-09-25T08:41:43;96241.72;;;15.86;69.32
48216;BME280;34005;48.844;10.098;2022-09-25T08:44:19;96236.34;;;15.93;68.81
48216;BME280;34005;48.844;10.098;2022-09-25T08:46:52;96241.53;;;15.99;68.80
48216;BME280;34005;48.844;10.098;2022-09-25T08:49:49;96241.53;;;15.99;69.01
48216;BME280;34005;48.844;10.098;2022-09-25T08:52:19;96229.16;;;16.00;69.40
48216;BME280;34005;48.844;10.098;2022-09-25T08:54:49;96226.44;;;16.06;68.60
48216;BME280;34005;48.844;10.098;2022-09-25T08:57:24;96223.94;;;16.12;69.06
48216;BME280;34005;48.844;10.098;2022-09-25T08:59:58;96223.38;;;16.10;68.82
48216;BME280;34005;48.844;10.098;2022-09-25T09:02:35;96223.00;;;16.06;70.25
48216;BME280;34005;48.844;10.098;2022-09-25T09:05:13;96225.19;;;16.09;69.72
48216;BME280;34005;48.844;10.098;2022-09-25T09:07:51;96219.81;;;16.16;69.40
48216;BME280;34005;48.844;10.098;2022-09-25T09:10:26;96222.59;;;16.21;69.61
48216;BME280;34005;48.844;10.098;2022-09-25T09:12:59;96224.41;;;16.20;69.09
48216;BME280;34005;48.844;10.098;2022-09-25T09:15:37;96225.44;;;16.19;69.39
48216;BME280;34005;48.844;10.098;2022-09-25T09:18:20;96223.38;;;16.21;68.95
48216;BME280;34005;48.844;10.098;2022-09-25T09:20:51;96229.00;;;16.25;69.67
48216;BME280;34005;48.844;10.098;2022-09-25T09:23:21;96222.38;;;16.34;69.03
48216;BME280;34005;48.844;10.098;2022-09-25T09:26:00;96228.09;;;16.43;69.19
48216;BME280;34005;48.844;10.098;2022-09-25T09:28:47;96230.75;;;16.66;68.74
48216;BME280;34005;48.844;10.098;2022-09-25T09:31:23;96227.09;;;16.79;66.75
48216;BME280;34005;48.844;10.098;2022-09-25T09:34:02;96227.44;;;16.83;67.06
48216;BME280;34005;48.844;10.098;2022-09-25T09:36:42;96230.16;;;16.76;67.13
48216;BME280;34005;48.844;10.098;2022-09-25T09:44:50;96232.63;;;17.70;65.63
48216;BME280;34005;48.844;10.098;2022-09-25T09:47:49;96224.72;;;19.01;60.76
48216;BME280;34005;48.844;10.098;2022-09-25T09:53:04;96227.53;;;20.74;56.11
48216;BME280;34005;48.844;10.098;2022-09-25T09:55:59;96230.28;;;20.89;52.94
48216;BME280;34005;48.844;10.098;2022-09-25T09:58:40;96228.72;;;20.24;54.72
48216;BME280;34005;48.844;10.098;2022-09-25T10:01:10;96221.38;;;19.76;56.44
48216;BME280;34005;48.844;10.098;2022-09-25T10:04:03;96224.22;;;19.48;55.55
48216;BME280;34005;48.844;10.098;2022-09-25T10:06:37;96218.84;;;19.16;56.34
48216;BME280;34005;48.844;10.098;2022-09-25T10:09:14;96213.53;;;18.93;57.76
48216;BME280;34005;48.844;10.098;2022-09-25T10:11:55;96214.00;;;18.90;59.05
48216;BME280;34005;48.844;10.098;2022-09-25T10:14:35;96216.59;;;18.85;58.23
48216;BME280;34005;48.844;10.098;2022-09-25T10:17:06;96214.91;;;18.79;58.46
48216;BME280;34005;48.844;10.098;2022-09-25T10:19:44;96214.72;;;18.69;58.17
48216;BME280;34005;48.844;10.098;2022-09-25T10:22:16;96215.28;;;18.54;58.51
48216;BME280;34005;48.844;10.098;2022-09-25T10:24:51;96215.88;;;18.39;58.35
48216;BME280;34005;48.844;10.098;2022-09-25T10:27:29;96209.81;;;18.22;58.00
48216;BME280;34005;48.844;10.098;2022-09-25T10:30:15;96209.13;;;18.15;59.16
48216;BME280;34005;48.844;10.098;2022-09-25T10:32:54;96207.56;;;18.14;58.88
48216;BME280;34005;48.844;10.098;2022-09-25T10:35:27;96208.84;;;18.11;59.17
48216;BME280;34005;48.844;10.098;2022-09-25T10:37:58;96208.03;;;18.10;59.47
48216;BME280;34005;48.844;10.098;2022-09-25T10:40:29;96206.19;;;18.11;59.30
48216;BME280;34005;48.844;10.098;2022-09-25T10:43:05;96204.84;;;18.08;61.07
48216;BME280;34005;48.844;10.098;2022-09-25T10:46:05;96219.28;;;18.06;59.69
48216;BME280;34005;48.844;10.098;2022-09-25T10:48:34;96213.94;;;18.01;59.58
48216;BME280;34005;48.844;10.098;2022-09-25T10:51:20;96220.50;;;17.98;59.97
48216;BME280;34005;48.844;10.098;2022-09-25T10:53:48;96219.94;;;17.96;60.47
48216;BME280;34005;48.844;10.098;2022-09-25T10:56:21;96215.69;;;17.95;60.10
48216;BME280;34005;48.844;10.098;2022-09-25T10:58:55;96217.22;;;17.91;59.56
48216;BME280;34005;48.844;10.098;2022-09-25T11:01:30;96224.78;;;17.87;59.23
48216;BME280;34005;48.844;10.098;2022-09-25T11:04:00;96229.28;;;17.87;59.76
48216;BME280;34005;48.844;10.098;2022-09-25T11:06:31;96223.88;;;17.82;59.44
48216;BME280;34005;48.844;10.098;2022-09-25T11:09:12;96221.38;;;17.75;59.80
48216;BME280;34005;48.844;10.098;2022-09-25T11:11:43;96225.19;;;17.67;59.39
48216;BME280;34005;48.844;10.098;2022-09-25T11:14:18;96223.28;;;17.63;59.05
48216;BME280;34005;48.844;10.098;2022-09-25T11:16:50;96225.56;;;17.59;59.45
48216;BME280;34005;48.844;10.098;2022-09-25T11:19:23;96226.28;;;17.55;60.04
48216;BME280;34005;48.844;10.098;2022-09-25T11:22:00;96224.91;;;17.52;59.38
48216;BME280;34005;48.844;10.098;2022-09-25T11:24:40;96222.72;;;17.49;59.73
48216;BME280;34005;48.844;10.098;2022-09-25T11:27:14;96220.34;;;17.47;60.25
48216;BME280;34005;48.844;10.098;2022-09-25T11:29:53;96225.84;;;17.46;60.10
48216;BME280;34005;48.844;10.098;2022-09-25T11:32:28;96221.69;;;17.50;59.87
48216;BME280;34005;48.844;10.098;2022-09-25T11:35:13;96222.34;;;17.57;59.89
48216;BME280;34005;48.844;10.098;2022-09-25T11:37:53;96216.72;;;17.65;60.12
48216;BME280;34005;48.844;10.098;2022-09-25T11:40:31;96212.88;;;17.73;58.86
48216;BME280;34005;48.844;10.098;2022-09-25T11:43:27;96215.06;;;17.76;58.52
48216;BME280;34005;48.844;10.098;2022-09-25T11:45:59;96214.28;;;17.76;58.33
48216;BME280;34005;48.844;10.098;2022-09-25T11:48:34;96201.09;;;17.76;58.28
48216;BME280;34005;48.844;10.098;2022-09-25T11:51:12;96199.47;;;17.75;58.46
48216;BME280;34005;48.844;10.098;2022-09-25T11:53:48;96204.28;;;17.78;58.55
48216;BME280;34005;48.844;10.098;2022-09-25T11:56:47;96207.38;;;17.86;58.52
48216;BME280;34005;48.844;10.098;2022-09-25T11:59:28;96202.16;;;17.91;58.82
48216;BME280;34005;48.844;10.098;2022-09-25T12:02:15;96201.38;;;17.91;58.34
48216;BME280;34005;48.844;10.098;2022-09-25T12:05:01;96203.91;;;17.86;58.14
48216;BME280;34005;48.844;10.098;2022-09-25T12:07:46;96203.22;;;17.79;57.70
48216;BME280;34005;48.844;10.098;2022-09-25T12:10:31;96204.19;;;17.73;59.54
48216;BME280;34005;48.844;10.098;2022-09-25T12:13:07;96207.59;;;17.73;58.29
48216;BME280;34005;48.844;10.098;2022-09-25T12:15:50;96206.81;;;17.73;58.46
48216;BME280;34005;48.844;10.098;2022-09-25T12:18:31;96203.75;;;17.64;58.42
48216;BME280;34005;48.844;10.098;2022-09-25T12:21:06;96202.19;;;17.51;59.16
48216;BME280;34005;48.844;10.098;2022-09-25T12:23:37;96201.78;;;17.42;59.55
48216;BME280;34005;48.844;10.098;2022-09-25T12:26:15;96209.50;;;17.32;59.83
48216;BME280;34005;48.844;10.098;2022-09-25T12:28:55;96202.66;;;17.19;59.69
48216;BME280;34005;48.844;10.098;2022-09-25T12:31:34;96198.44;;;17.06;60.59
48216;BME280;34005;48.844;10.098;2022-09-25T12:34:10;96202.22;;;16.99;60.84
48216;BME280;34005;48.844;10.098;2022-09-25T12:36:45;96196.63;;;16.95;61.36
48216;BME280;34005;48.844;10.098;2022-09-25T12:39:26;96193.78;;;16.97;61.13
48216;BME280;34005;48.844;10.098;2022-09-25T12:42:02;96198.91;;;16.92;60.59
48216;BME280;34005;48.844;10.098;2022-09-25T12:44:40;96194.81;;;16.84;60.82
48216;BME280;34005;48.844;10.098;2022-09-25T12:47:19;96193.69;;;16.80;61.52
48216;BME280;34005;48.844;10.098;2022-09-25T12:49:54;96192.72;;;16.74;61.93
48216;BME280;34005;48.844;10.098;2022-09-25T12:52:26;96188.94;;;16.70;62.54
48216;BME280;34005;48.844;10.098;2022-09-25T12:55:00;96191.00;;;16.68;62.96
48216;BME280;34005;48.844;10.098;2022-09-25T12:57:33;96189.41;;;16.67;63.19
48216;BME280;34005;48.844;10.098;2022-09-25T13:00:07;96191.00;;;16.68;62.22
48216;BME280;34005;48.844;10.098;2022-09-25T13:02:45;96191.00;;;16.68;61.61
48216;BME280;34005;48.844;10.098;2022-09-25T13:05:18;96187.34;;;16.69;63.05
48216;BME280;34005;48.844;10.098;2022-09-25T13:07:51;96185.28;;;16.71;61.67
48216;BME280;34005;48.844;10.098;2022-09-25T13:10:25;96182.09;;;16.69;61.08
48216;BME280;34005;48.844;10.098;2022-09-25T13:12:55;96192.63;;;16.69;61.09
48216;BME280;34005;48.844;10.098;2022-09-25T13:15:25;96193.63;;;16.68;61.26
48216;BME280;34005;48.844;10.098;2022-09-25T13:17:56;96190.91;;;16.63;60.84
48216;BME280;34005;48.844;10.098;2022-09-25T13:20:45;96190.53;;;16.59;61.56
48216;BME280;34005;48.844;10.098;2022-09-25T13:23:24;96191.25;;;16.55;61.44
48216;BME280;34005;48.844;10.098;2022-09-25T13:25:55;96194.91;;;16.54;61.00
48216;BME280;34005;48.844;10.098;2022-09-25T13:28:30;96196.19;;;16.51;61.24
48216;BME280;34005;48.844;10.098;2022-09-25T13:31:01;96195.34;;;16.51;61.73